sensor_id;sensor_type;location;lat;lon;timestamp;pressure;altitude;pressure_sealevel;temperature;humidity
63097;BME280;49185;42.320;23.198;2022-08-21T00:01:10;94148.34;;;16.08;100.00
63097;BME280;49185;42.320;23.198;2022-08-21T00:03:38;94143.81;;;16.05;100.00
63097;BME280;49185;42.320;23.198;2022-08-21T00:06:03;94141.28;;;16.11;100.00
63097;BME280;49185;42.320;23.198;2022-08-21T00:08:29;94141.75;;;16.18;100.00
63097;BME280;49185;42.320;23.198;2022-08-21T00:10:55;94141.84;;;16.06;100.00
63097;BME280;49185;42.320;23.198;2022-08-21T00:13:20;94139.69;;;16.01;100.00
63097;BME280;49185;42.320;23.198;2022-08-21T00:15:47;94141.16;;;15.92;100.00
63097;BME280;49185;42.320;23.198;2022-08-21T00:18:14;94136.94;;;15.91;100.00
63097;BME280;49185;42.320;23.198;2022-08-21T00:20:41;94147.25;;;16.27;100.00
63097;BME280;49185;42.320;23.198;2022-08-21T00:23:07;94137.25;;;16.55;100.00
63097;BME280;49185;42.320;23.198;2022-08-21T00:25:33;94139.13;;;16.37;100.00
63097;BME280;49185;42.320;23.198;2022-08-21T00:27:58;94148.22;;;16.12;100.00
63097;BME280;49185;42.320;23.198;2022-08-21T00:30:25;94145.88;;;16.01;100.00
63097;BME280;49185;42.320;23.198;2022-08-21T00:32:53;94142.03;;;15.89;100.00
63097;BME280;49185;42.320;23.198;2022-08-21T00:35:23;94139.13;;;15.84;100.00
63097;BME280;49185;42.320;23.198;2022-08-21T00:37:49;94139.78;;;15.88;100.00
63097;BME280;49185;42.320;23.198;2022-08-21T00:40:19;94148.91;;;15.81;100.00
63097;BME280;49185;42.320;23.198;2022-08-21T00:42:46;94146.94;;;15.82;100.00
63097;BME280;49185;42.320;23.198;2022-08-21T00:45:11;94153.56;;;15.81;100.00
63097;BME280;49185;42.320;23.198;2022-08-21T00:47:37;94141.47;;;15.73;100.00
63097;BME280;49185;42.320;23.198;2022-08-21T00:50:05;94152.44;;;15.69;100.00
63097;BME280;49185;42.320;23.198;2022-08-21T00:52:34;94147.22;;;15.75;100.00
63097;BME280;49185;42.320;23.198;2022-08-21T00:55:01;94143.13;;;15.70;100.00
63097;BME280;49185;42.320;23.198;2022-08-21T00:57:29;94144.00;;;15.67;100.00
63097;BME280;49185;42.320;23.198;2022-08-21T00:59:58;94144.75;;;15.68;100.00
63097;BME280;49185;42.320;23.198;2022-08-21T01:02:25;94150.59;;;15.66;100.00
63097;BME280;49185;42.320;23.198;2022-08-21T01:04:50;94156.47;;;15.65;100.00
63097;BME280;49185;42.320;23.198;2022-08-21T01:07:16;94152.25;;;15.63;100.00
63097;BME280;49185;42.320;23.198;2022-08-21T01:09:42;94145.13;;;15.57;100.00
63097;BME280;49185;42.320;23.198;2022-08-21T01:12:09;94136.84;;;15.60;100.00
63097;BME280;49185;42.320;23.198;2022-08-21T01:14:35;94148.44;;;15.61;100.00
63097;BME280;49185;42.320;23.198;2022-08-21T01:17:02;94150.16;;;15.68;100.00
63097;BME280;49185;42.320;23.198;2022-08-21T01:19:29;94151.91;;;15.61;100.00
63097;BME280;49185;42.320;23.198;2022-08-21T01:21:55;94145.56;;;15.55;100.00
63097;BME280;49185;42.320;23.198;2022-08-21T01:24:21;94143.25;;;15.54;100.00
63097;BME280;49185;42.320;23.198;2022-08-21T01:26:48;94147.16;;;15.53;100.00
63097;BME280;49185;42.320;23.198;2022-08-21T01:32:20;94143.34;;;15.63;100.00
63097;BME280;49185;42.320;23.198;2022-08-21T01:34:47;94140.91;;;15.56;100.00
63097;BME280;49185;42.320;23.198;2022-08-21T01:37:14;94127.53;;;15.61;100.00
63097;BME280;49185;42.320;23.198;2022-08-21T01:39:40;94132.06;;;15.65;100.00
63097;BME280;49185;42.320;23.198;2022-08-21T01:42:06;94140.53;;;15.67;100.00
63097;BME280;49185;42.320;23.198;2022-08-21T01:44:32;94128.16;;;15.66;100.00
63097;BME280;49185;42.320;23.198;2022-08-21T01:47:00;94119.59;;;15.67;100.00
63097;BME280;49185;42.320;23.198;2022-08-21T01:49:27;94121.22;;;15.65;100.00
63097;BME280;49185;42.320;23.198;2022-08-21T01:51:53;94121.66;;;15.63;100.00
63097;BME280;49185;42.320;23.198;2022-08-21T01:54:19;94118.31;;;15.59;100.00
63097;BME280;49185;42.320;23.198;2022-08-21T01:56:50;94116.50;;;15.56;100.00
63097;BME280;49185;42.320;23.198;2022-08-21T01:59:16;94115.22;;;15.48;100.00
63097;BME280;49185;42.320;23.198;2022-08-21T02:01:42;94113.97;;;15.61;100.00
63097;BME280;49185;42.320;23.198;2022-08-21T02:04:09;94115.88;;;15.74;100.00
63097;BME280;49185;42.320;23.198;2022-08-21T02:06:35;94103.28;;;15.58;100.00
63097;BME280;49185;42.320;23.198;2022-08-21T02:09:03;94104.78;;;15.59;100.00
63097;BME280;49185;42.320;23.198;2022-08-21T02:11:30;94105.53;;;15.59;100.00
63097;BME280;49185;42.320;23.198;2022-08-21T02:13:55;94098.31;;;15.56;100.00
63097;BME280;49185;42.320;23.198;2022-08-21T02:16:21;94106.94;;;15.64;100.00
63097;BME280;49185;42.320;23.198;2022-08-21T02:18:46;94110.94;;;15.59;100.00
63097;BME280;49185;42.320;23.198;2022-08-21T02:21:12;94103.50;;;15.51;100.00
63097;BME280;49185;42.320;23.198;2022-08-21T02:23:37;94101.66;;;15.48;100.00
63097;BME280;49185;42.320;23.198;2022-08-21T02:26:06;94102.31;;;15.52;100.00
63097;BME280;49185;42.320;23.198;2022-08-21T02:28:33;94101.44;;;15.55;100.00
63097;BME280;49185;42.320;23.198;2022-08-21T02:30:59;94104.13;;;15.55;100.00
63097;BME280;49185;42.320;23.198;2022-08-21T02:33:25;94110.75;;;15.54;100.00
63097;BME280;49185;42.320;23.198;2022-08-21T02:35:51;94102.97;;;15.56;100.00
63097;BME280;49185;42.320;23.198;2022-08-21T02:38:26;94107.63;;;15.55;100.00
63097;BME280;49185;42.320;23.198;2022-08-21T02:40:52;94108.38;;;15.56;100.00
63097;BME280;49185;42.320;23.198;2022-08-21T02:43:20;94104.22;;;15.64;100.00
63097;BME280;49185;42.320;23.198;2022-08-21T02:45:47;94112.88;;;15.72;100.00
63097;BME280;49185;42.320;23.198;2022-08-21T02:48:16;94098.78;;;15.64;100.00
63097;BME280;49185;42.320;23.198;2022-08-21T02:50:45;94103.34;;;15.67;100.00
63097;BME280;49185;42.320;23.198;2022-08-21T02:53:12;94115.38;;;15.66;100.00
63097;BME280;49185;42.320;23.198;2022-08-21T02:55:38;94121.09;;;16.12;100.00
63097;BME280;49185;42.320;23.198;2022-08-21T02:58:06;94120.34;;;16.42;100.00
63097;BME280;49185;42.320;23.198;2022-08-21T03:00:32;94116.38;;;16.65;100.00
63097;BME280;49185;42.320;23.198;2022-08-21T03:02:58;94112.72;;;16.59;100.00
63097;BME280;49185;42.320;23.198;2022-08-21T03:05:26;94123.50;;;16.50;100.00
63097;BME280;49185;42.320;23.198;2022-08-21T03:07:51;94122.94;;;16.55;100.00
63097;BME280;49185;42.320;23.198;2022-08-21T03:10:17;94130.31;;;16.54;100.00
63097;BME280;49185;42.320;23.198;2022-08-21T03:12:43;94128.16;;;16.40;100.00
63097;BME280;49185;42.320;23.198;2022-08-21T03:15:12;94132.97;;;16.36;100.00
63097;BME280;49185;42.320;23.198;2022-08-21T03:17:38;94126.97;;;16.41;100.00
63097;BME280;49185;42.320;23.198;2022-08-21T03:20:06;94129.53;;;16.45;100.00
63097;BME280;49185;42.320;23.198;2022-08-21T03:22:32;94116.38;;;16.34;100.00
63097;BME280;49185;42.320;23.198;2022-08-21T03:24:58;94116.91;;;16.20;100.00
63097;BME280;49185;42.320;23.198;2022-08-21T03:27:24;94111.44;;;16.11;100.00
63097;BME280;49185;42.320;23.198;2022-08-21T03:29:50;94115.13;;;15.73;100.00
63097;BME280;49185;42.320;23.198;2022-08-21T03:32:15;94121.34;;;15.61;100.00
63097;BME280;49185;42.320;23.198;2022-08-21T03:34:41;94112.47;;;15.82;100.00
63097;BME280;49185;42.320;23.198;2022-08-21T03:37:07;94116.13;;;15.88;100.00
63097;BME280;49185;42.320;23.198;2022-08-21T03:39:33;94121.19;;;15.43;100.00
63097;BME280;49185;42.320;23.198;2022-08-21T03:41:59;94124.09;;;15.14;100.00
63097;BME280;49185;42.320;23.198;2022-08-21T03:44:26;94126.09;;;15.01;100.00
63097;BME280;49185;42.320;23.198;2022-08-21T03:46:51;94125.34;;;14.87;100.00
63097;BME280;49185;42.320;23.198;2022-08-21T03:49:17;94124.47;;;15.03;100.00
63097;BME280;49185;42.320;23.198;2022-08-21T03:51:42;94130.00;;;15.00;100.00
63097;BME280;49185;42.320;23.198;2022-08-21T03:54:08;94130.00;;;14.87;100.00
63097;BME280;49185;42.320;23.198;2022-08-21T03:56:33;94128.94;;;14.72;100.00
63097;BME280;49185;42.320;23.198;2022-08-21T03:58:58;94133.72;;;14.68;100.00
63097;BME280;49185;42.320;23.198;2022-08-21T04:01:24;94124.94;;;14.64;100.00
63097;BME280;49185;42.320;23.198;2022-08-21T04:03:50;94128.00;;;14.66;100.00
63097;BME280;49185;42.320;23.198;2022-08-21T04:06:15;94133.91;;;14.73;100.00
63097;BME280;49185;42.320;23.198;2022-08-21T04:08:41;94136.94;;;14.75;100.00
63097;BME280;49185;42.320;23.198;2022-08-21T04:11:07;94130.44;;;14.73;100.00
63097;BME280;49185;42.320;23.198;2022-08-21T04:13:32;94138.69;;;14.69;100.00
63097;BME280;49185;42.320;23.198;2022-08-21T04:15:58;94140.66;;;14.69;100.00
63097;BME280;49185;42.320;23.198;2022-08-21T04:18:23;94141.28;;;14.73;100.00
63097;BME280;49185;42.320;23.198;2022-08-21T04:20:51;94141.38;;;14.82;100.00
63097;BME280;49185;42.320;23.198;2022-08-21T04:23:19;94127.78;;;15.07;100.00
63097;BME280;49185;42.320;23.198;2022-08-21T04:25:44;94133.38;;;15.25;100.00
63097;BME280;49185;42.320;23.198;2022-08-21T04:28:10;94132.75;;;15.21;100.00
63097;BME280;49185;42.320;23.198;2022-08-21T04:30:36;94142.06;;;15.20;100.00
63097;BME280;49185;42.320;23.198;2022-08-21T04:33:01;94147.25;;;15.27;100.00
63097;BME280;49185;42.320;23.198;2022-08-21T04:35:27;94144.94;;;15.39;100.00
63097;BME280;49185;42.320;23.198;2022-08-21T04:37:53;94141.47;;;15.38;100.00
63097;BME280;49185;42.320;23.198;2022-08-21T04:40:22;94148.03;;;15.50;100.00
63097;BME280;49185;42.320;23.198;2022-08-21T04:42:54;94147.03;;;15.69;100.00
63097;BME280;49185;42.320;23.198;2022-08-21T04:45:23;94148.72;;;15.97;100.00
63097;BME280;49185;42.320;23.198;2022-08-21T04:47:51;94144.91;;;16.17;100.00
63097;BME280;49185;42.320;23.198;2022-08-21T04:50:17;94143.47;;;16.25;100.00
63097;BME280;49185;42.320;23.198;2022-08-21T04:52:44;94154.34;;;16.34;100.00
63097;BME280;49185;42.320;23.198;2022-08-21T04:55:10;94167.19;;;16.64;100.00
63097;BME280;49185;42.320;23.198;2022-08-21T04:57:35;94166.94;;;17.48;100.00
63097;BME280;49185;42.320;23.198;2022-08-21T05:00:03;94161.41;;;17.70;100.00
63097;BME280;49185;42.320;23.198;2022-08-21T05:02:29;94160.19;;;17.80;100.00
63097;BME280;49185;42.320;23.198;2022-08-21T05:04:55;94149.28;;;17.62;100.00
63097;BME280;49185;42.320;23.198;2022-08-21T05:07:24;94145.94;;;17.30;100.00
63097;BME280;49185;42.320;23.198;2022-08-21T05:09:50;94154.25;;;17.36;100.00
63097;BME280;49185;42.320;23.198;2022-08-21T05:12:16;94162.47;;;17.73;100.00
63097;BME280;49185;42.320;23.198;2022-08-21T05:14:42;94162.00;;;17.65;100.00
63097;BME280;49185;42.320;23.198;2022-08-21T05:17:08;94166.19;;;17.48;100.00
63097;BME280;49185;42.320;23.198;2022-08-21T05:19:35;94158.47;;;17.19;100.00
63097;BME280;49185;42.320;23.198;2022-08-21T05:22:00;94152.00;;;17.34;100.00
63097;BME280;49185;42.320;23.198;2022-08-21T05:24:26;94156.13;;;17.66;100.00
63097;BME280;49185;42.320;23.198;2022-08-21T05:26:52;94150.31;;;18.19;100.00
63097;BME280;49185;42.320;23.198;2022-08-21T05:29:18;94147.78;;;18.07;100.00
63097;BME280;49185;42.320;23.198;2022-08-21T05:31:44;94143.94;;;18.31;100.00
63097;BME280;49185;42.320;23.198;2022-08-21T05:34:09;94140.88;;;18.90;100.00
63097;BME280;49185;42.320;23.198;2022-08-21T05:36:35;94137.94;;;19.74;100.00
63097;BME280;49185;42.320;23.198;2022-08-21T05:39:00;94144.28;;;19.95;100.00
63097;BME280;49185;42.320;23.198;2022-08-21T05:41:25;94137.56;;;19.81;100.00
63097;BME280;49185;42.320;23.198;2022-08-21T05:43:51;94129.69;;;21.41;100.00
63097;BME280;49185;42.320;23.198;2022-08-21T05:46:17;94135.69;;;21.86;100.00
63097;BME280;49185;42.320;23.198;2022-08-21T05:48:42;94138.53;;;22.17;100.00
63097;BME280;49185;42.320;23.198;2022-08-21T05:51:10;94130.91;;;22.59;100.00
63097;BME280;49185;42.320;23.198;2022-08-21T05:53:37;94122.03;;;22.69;100.00
63097;BME280;49185;42.320;23.198;2022-08-21T05:56:03;94122.13;;;20.96;100.00
63097;BME280;49185;42.320;23.198;2022-08-21T05:58:30;94131.56;;;19.92;100.00
63097;BME280;49185;42.320;23.198;2022-08-21T06:00:56;94136.09;;;20.68;100.00
63097;BME280;49185;42.320;23.198;2022-08-21T06:03:26;94135.47;;;22.10;100.00
63097;BME280;49185;42.320;23.198;2022-08-21T06:05:52;94130.09;;;24.51;100.00
63097;BME280;49185;42.320;23.198;2022-08-21T06:08:19;94141.59;;;24.49;100.00
63097;BME280;49185;42.320;23.198;2022-08-21T06:10:47;94142.63;;;22.59;100.00
63097;BME280;49185;42.320;23.198;2022-08-21T06:13:15;94141.75;;;23.05;100.00
63097;BME280;49185;42.320;23.198;2022-08-21T06:15:40;94147.88;;;23.31;100.00
63097;BME280;49185;42.320;23.198;2022-08-21T06:18:06;94147.09;;;23.68;100.00
63097;BME280;49185;42.320;23.198;2022-08-21T06:20:32;94147.09;;;22.57;100.00
63097;BME280;49185;42.320;23.198;2022-08-21T06:22:58;94143.78;;;21.75;100.00
63097;BME280;49185;42.320;23.198;2022-08-21T06:25:24;94140.50;;;21.51;100.00
63097;BME280;49185;42.320;23.198;2022-08-21T06:27:49;94136.38;;;23.70;100.00
63097;BME280;49185;42.320;23.198;2022-08-21T06:30:15;94128.09;;;24.85;100.00
63097;BME280;49185;42.320;23.198;2022-08-21T06:32:40;94145.09;;;25.06;100.00
63097;BME280;49185;42.320;23.198;2022-08-21T06:35:06;94133.94;;;26.19;100.00
63097;BME280;49185;42.320;23.198;2022-08-21T06:37:32;94139.47;;;26.90;100.00
63097;BME280;49185;42.320;23.198;2022-08-21T06:39:57;94142.31;;;28.44;69.64
63097;BME280;49185;42.320;23.198;2022-08-21T06:42:23;94149.53;;;28.66;68.63
63097;BME280;49185;42.320;23.198;2022-08-21T06:44:48;94145.59;;;29.65;62.87
63097;BME280;49185;42.320;23.198;2022-08-21T06:47:14;94146.31;;;29.39;62.15
63097;BME280;49185;42.320;23.198;2022-08-21T06:49:40;94149.19;;;28.38;65.09
63097;BME280;49185;42.320;23.198;2022-08-21T06:52:09;94145.84;;;26.44;75.86
63097;BME280;49185;42.320;23.198;2022-08-21T06:54:35;94131.69;;;26.59;73.91
63097;BME280;49185;42.320;23.198;2022-08-21T06:57:00;94138.03;;;27.62;68.04
63097;BME280;49185;42.320;23.198;2022-08-21T06:59:26;94118.63;;;29.65;59.07
63097;BME280;49185;42.320;23.198;2022-08-21T07:01:51;94128.16;;;29.12;59.50
63097;BME280;49185;42.320;23.198;2022-08-21T07:04:17;94131.41;;;26.33;69.71
63097;BME280;49185;42.320;23.198;2022-08-21T07:06:42;94133.09;;;24.47;79.08
63097;BME280;49185;42.320;23.198;2022-08-21T07:09:08;94132.50;;;23.45;85.87
63097;BME280;49185;42.320;23.198;2022-08-21T07:11:35;94122.19;;;22.60;90.06
63097;BME280;49185;42.320;23.198;2022-08-21T07:14:00;94116.34;;;22.15;93.75
63097;BME280;49185;42.320;23.198;2022-08-21T07:16:26;94114.66;;;21.98;98.50
63097;BME280;49185;42.320;23.198;2022-08-21T07:18:51;94112.63;;;21.93;100.00
63097;BME280;49185;42.320;23.198;2022-08-21T07:21:17;94118.88;;;21.32;100.00
63097;BME280;49185;42.320;23.198;2022-08-21T07:23:46;94112.59;;;21.67;100.00
63097;BME280;49185;42.320;23.198;2022-08-21T07:26:13;94119.91;;;21.00;100.00
63097;BME280;49185;42.320;23.198;2022-08-21T07:28:39;94123.63;;;21.17;100.00
63097;BME280;49185;42.320;23.198;2022-08-21T07:31:05;94119.50;;;22.08;100.00
63097;BME280;49185;42.320;23.198;2022-08-21T07:33:32;94117.09;;;24.96;88.38
63097;BME280;49185;42.320;23.198;2022-08-21T07:35:58;94108.84;;;24.40;88.14
63097;BME280;49185;42.320;23.198;2022-08-21T07:38:25;94119.31;;;25.94;79.24
63097;BME280;49185;42.320;23.198;2022-08-21T07:40:52;94120.72;;;26.83;77.19
63097;BME280;49185;42.320;23.198;2022-08-21T07:43:20;94123.84;;;24.95;80.63
63097;BME280;49185;42.320;23.198;2022-08-21T07:45:45;94118.31;;;25.12;80.81
63097;BME280;49185;42.320;23.198;2022-08-21T07:48:11;94116.72;;;25.44;78.53
63097;BME280;49185;42.320;23.198;2022-08-21T07:50:37;94110.38;;;25.77;77.26
63097;BME280;49185;42.320;23.198;2022-08-21T07:53:03;94106.19;;;25.59;77.09
63097;BME280;49185;42.320;23.198;2022-08-21T07:55:28;94109.53;;;25.24;80.08
63097;BME280;49185;42.320;23.198;2022-08-21T07:57:54;94110.97;;;25.48;81.63
63097;BME280;49185;42.320;23.198;2022-08-21T08:00:21;94105.84;;;24.55;84.65
63097;BME280;49185;42.320;23.198;2022-08-21T08:02:49;94111.13;;;23.66;87.54
63097;BME280;49185;42.320;23.198;2022-08-21T08:05:17;94108.97;;;23.27;91.17
63097;BME280;49185;42.320;23.198;2022-08-21T08:07:43;94107.84;;;24.71;88.63
63097;BME280;49185;42.320;23.198;2022-08-21T08:10:09;94095.28;;;25.89;78.40
63097;BME280;49185;42.320;23.198;2022-08-21T08:12:36;94094.59;;;26.19;75.18
63097;BME280;49185;42.320;23.198;2022-08-21T08:15:03;94109.19;;;23.72;85.07
63097;BME280;49185;42.320;23.198;2022-08-21T08:17:29;94094.19;;;23.62;87.83
63097;BME280;49185;42.320;23.198;2022-08-21T08:19:55;94099.59;;;23.02;88.61
63097;BME280;49185;42.320;23.198;2022-08-21T08:22:22;94087.22;;;23.18;88.36
63097;BME280;49185;42.320;23.198;2022-08-21T08:24:47;94093.53;;;23.35;88.06
63097;BME280;49185;42.320;23.198;2022-08-21T08:27:13;94104.19;;;23.70;88.00
63097;BME280;49185;42.320;23.198;2022-08-21T08:29:38;94103.81;;;22.98;92.34
63097;BME280;49185;42.320;23.198;2022-08-21T08:32:04;94102.91;;;22.75;95.40
63097;BME280;49185;42.320;23.198;2022-08-21T08:34:30;94097.53;;;22.60;93.38
63097;BME280;49185;42.320;23.198;2022-08-21T08:36:56;94098.16;;;22.75;92.24
63097;BME280;49185;42.320;23.198;2022-08-21T08:39:21;94097.28;;;22.90;91.52
63097;BME280;49185;42.320;23.198;2022-08-21T08:41:47;94097.47;;;22.49;95.79
63097;BME280;49185;42.320;23.198;2022-08-21T08:44:13;94100.06;;;22.32;95.78
63097;BME280;49185;42.320;23.198;2022-08-21T08:46:43;94099.41;;;21.91;98.18
63097;BME280;49185;42.320;23.198;2022-08-21T08:54:30;94089.41;;;21.42;97.48
63097;BME280;49185;42.320;23.198;2022-08-21T08:57:01;94093.34;;;22.02;96.87
63097;BME280;49185;42.320;23.198;2022-08-21T08:59:52;94092.13;;;22.08;95.62
63097;BME280;49185;42.320;23.198;2022-08-21T09:02:18;94094.13;;;21.88;100.00
63097;BME280;49185;42.320;23.198;2022-08-21T09:04:47;94100.22;;;22.23;96.12
63097;BME280;49185;42.320;23.198;2022-08-21T09:07:45;94103.84;;;22.40;94.94
63097;BME280;49185;42.320;23.198;2022-08-21T09:10:30;94095.22;;;22.79;92.40
63097;BME280;49185;42.320;23.198;2022-08-21T09:16:08;94091.56;;;23.41;87.69
63097;BME280;49185;42.320;23.198;2022-08-21T09:18:46;94089.16;;;23.54;85.25
63097;BME280;49185;42.320;23.198;2022-08-21T09:24:00;94071.38;;;23.50;89.19
63097;BME280;49185;42.320;23.198;2022-08-21T09:26:31;94071.69;;;23.58;88.45
63097;BME280;49185;42.320;23.198;2022-08-21T09:29:02;94064.28;;;23.92;86.19
63097;BME280;49185;42.320;23.198;2022-08-21T09:31:29;94058.84;;;24.64;80.52
63097;BME280;49185;42.320;23.198;2022-08-21T09:34:04;94060.81;;;25.03;77.91
63097;BME280;49185;42.320;23.198;2022-08-21T09:36:49;94044.72;;;25.29;78.41
63097;BME280;49185;42.320;23.198;2022-08-21T09:39:30;94045.13;;;24.64;80.41
63097;BME280;49185;42.320;23.198;2022-08-21T09:42:06;94042.06;;;25.70;78.60
63097;BME280;49185;42.320;23.198;2022-08-21T09:44:34;94039.03;;;26.75;71.53
63097;BME280;49185;42.320;23.198;2022-08-21T09:46:59;94043.69;;;27.15;71.02
63097;BME280;49185;42.320;23.198;2022-08-21T09:49:37;94029.00;;;25.76;74.93
63097;BME280;49185;42.320;23.198;2022-08-21T09:52:15;94028.22;;;26.52;71.21
63097;BME280;49185;42.320;23.198;2022-08-21T09:54:44;94029.78;;;27.02;73.61
63097;BME280;49185;42.320;23.198;2022-08-21T09:59:36;94030.56;;;26.43;72.04
63097;BME280;49185;42.320;23.198;2022-08-21T10:02:21;94030.16;;;26.27;76.23
63097;BME280;49185;42.320;23.198;2022-08-21T10:04:54;94011.63;;;25.92;71.66
63097;BME280;49185;42.320;23.198;2022-08-21T10:07:21;94025.50;;;26.77;75.06
63097;BME280;49185;42.320;23.198;2022-08-21T10:10:03;94016.13;;;26.85;73.09
63097;BME280;49185;42.320;23.198;2022-08-21T10:18:24;94011.47;;;26.15;76.93
63097;BME280;49185;42.320;23.198;2022-08-21T10:23:45;94000.91;;;27.65;69.47
63097;BME280;49185;42.320;23.198;2022-08-21T10:37:21;93983.34;;;25.92;75.94
63097;BME280;49185;42.320;23.198;2022-08-21T10:45:28;93976.88;;;25.84;75.35
63097;BME280;49185;42.320;23.198;2022-08-21T10:47:52;93974.13;;;25.43;78.80
63097;BME280;49185;42.320;23.198;2022-08-21T10:52:59;93979.59;;;26.19;72.77
63097;BME280;49185;42.320;23.198;2022-08-21T10:55:35;93978.81;;;25.94;75.66
63097;BME280;49185;42.320;23.198;2022-08-21T10:58:10;93973.94;;;26.42;71.04
63097;BME280;49185;42.320;23.198;2022-08-21T11:00:44;93968.63;;;26.98;71.44
63097;BME280;49185;42.320;23.198;2022-08-21T11:03:17;93965.63;;;28.09;67.51
63097;BME280;49185;42.320;23.198;2022-08-21T11:05:51;93952.25;;;27.62;69.76
63097;BME280;49185;42.320;23.198;2022-08-21T11:08:39;93939.56;;;27.72;68.37
63097;BME280;49185;42.320;23.198;2022-08-21T11:11:21;93948.63;;;27.86;67.69
63097;BME280;49185;42.320;23.198;2022-08-21T11:13:54;93953.81;;;27.20;68.31
63097;BME280;49185;42.320;23.198;2022-08-21T11:19:17;93966.53;;;26.25;73.51
63097;BME280;49185;42.320;23.198;2022-08-21T11:21:50;93961.16;;;25.26;75.69
63097;BME280;49185;42.320;23.198;2022-08-21T11:24:44;93955.47;;;24.16;82.90
63097;BME280;49185;42.320;23.198;2022-08-21T11:29:54;93951.97;;;23.77;86.92
63097;BME280;49185;42.320;23.198;2022-08-21T11:35:18;93941.97;;;23.74;89.23
63097;BME280;49185;42.320;23.198;2022-08-21T11:40:50;93944.59;;;23.18;90.47
63097;BME280;49185;42.320;23.198;2022-08-21T11:43:28;93951.72;;;22.93;93.68
63097;BME280;49185;42.320;23.198;2022-08-21T11:51:55;93950.31;;;22.55;94.39
63097;BME280;49185;42.320;23.198;2022-08-21T11:54:31;93945.81;;;22.52;96.34
63097;BME280;49185;42.320;23.198;2022-08-21T11:57:06;93947.84;;;22.57;94.92
63097;BME280;49185;42.320;23.198;2022-08-21T12:02:35;93936.13;;;22.62;94.02
63097;BME280;49185;42.320;23.198;2022-08-21T12:05:08;93948.53;;;22.52;95.86
63097;BME280;49185;42.320;23.198;2022-08-21T12:07:38;93945.88;;;22.69;94.68
63097;BME280;49185;42.320;23.198;2022-08-21T12:10:09;93947.09;;;22.62;96.78
63097;BME280;49185;42.320;23.198;2022-08-21T12:12:37;93952.38;;;22.29;99.84
63097;BME280;49185;42.320;23.198;2022-08-21T12:15:25;93969.91;;;22.05;99.65
63097;BME280;49185;42.320;23.198;2022-08-21T12:18:18;93971.94;;;22.10;100.00
63097;BME280;49185;42.320;23.198;2022-08-21T12:26:03;93950.09;;;22.22;100.00
63097;BME280;49185;42.320;23.198;2022-08-21T12:28:35;93944.75;;;22.01;100.00
63097;BME280;49185;42.320;23.198;2022-08-21T12:31:00;93955.00;;;21.80;100.00
63097;BME280;49185;42.320;23.198;2022-08-21T12:33:37;93950.69;;;22.79;100.00
63097;BME280;49185;42.320;23.198;2022-08-21T12:36:09;93973.66;;;22.45;100.00
63097;BME280;49185;42.320;23.198;2022-08-21T12:38:51;93967.94;;;22.11;100.00
63097;BME280;49185;42.320;23.198;2022-08-21T12:41:22;93969.06;;;21.68;100.00
63097;BME280;49185;42.320;23.198;2022-08-21T12:46:43;93953.63;;;22.70;100.00
63097;BME280;49185;42.320;23.198;2022-08-21T12:49:19;93958.16;;;22.36;100.00
63097;BME280;49185;42.320;23.198;2022-08-21T12:52:00;93949.13;;;22.67;100.00
63097;BME280;49185;42.320;23.198;2022-08-21T12:54:32;93952.44;;;22.82;100.00
63097;BME280;49185;42.320;23.198;2022-08-21T12:57:04;93950.38;;;22.72;100.00
63097;BME280;49185;42.320;23.198;2022-08-21T12:59:32;93952.22;;;22.86;100.00
63097;BME280;49185;42.320;23.198;2022-08-21T13:02:03;93972.03;;;22.64;100.00
63097;BME280;49185;42.320;23.198;2022-08-21T13:04:37;93973.47;;;22.54;100.00
63097;BME280;49185;42.320;23.198;2022-08-21T13:07:07;93979.50;;;22.64;100.00
63097;BME280;49185;42.320;23.198;2022-08-21T13:09:33;93981.69;;;22.54;100.00
63097;BME280;49185;42.320;23.198;2022-08-21T13:11:59;93981.75;;;21.65;100.00
63097;BME280;49185;42.320;23.198;2022-08-21T13:14:39;93986.91;;;21.89;100.00
63097;BME280;49185;42.320;23.198;2022-08-21T13:17:06;93989.41;;;22.56;100.00
63097;BME280;49185;42.320;23.198;2022-08-21T13:19:33;93992.25;;;22.72;100.00
63097;BME280;49185;42.320;23.198;2022-08-21T13:22:00;94000.50;;;22.35;100.00
63097;BME280;49185;42.320;23.198;2022-08-21T13:24:28;93990.88;;;21.88;100.00
63097;BME280;49185;42.320;23.198;2022-08-21T13:26:55;93989.69;;;22.21;100.00
63097;BME280;49185;42.320;23.198;2022-08-21T13:29:26;93993.25;;;21.75;100.00
63097;BME280;49185;42.320;23.198;2022-08-21T13:31:55;93979.66;;;21.86;100.00
63097;BME280;49185;42.320;23.198;2022-08-21T13:34:24;93970.88;;;21.76;100.00
63097;BME280;49185;42.320;23.198;2022-08-21T13:36:57;93964.28;;;22.57;100.00
63097;BME280;49185;42.320;23.198;2022-08-21T13:39:24;93962.59;;;22.76;100.00
63097;BME280;49185;42.320;23.198;2022-08-21T13:41:52;93950.31;;;23.09;100.00
63097;BME280;49185;42.320;23.198;2022-08-21T13:44:23;93940.97;;;23.94;100.00
63097;BME280;49185;42.320;23.198;2022-08-21T13:46:49;93931.91;;;24.54;99.73
63097;BME280;49185;42.320;23.198;2022-08-21T13:49:17;93941.38;;;24.70;97.29
63097;BME280;49185;42.320;23.198;2022-08-21T13:51:44;93929.75;;;24.31;100.00
63097;BME280;49185;42.320;23.198;2022-08-21T13:54:34;93925.81;;;24.89;93.89
63097;BME280;49185;42.320;23.198;2022-08-21T13:57:00;93919.19;;;24.51;97.47
63097;BME280;49185;42.320;23.198;2022-08-21T13:59:32;93914.75;;;24.15;100.00
63097;BME280;49185;42.320;23.198;2022-08-21T14:04:43;93910.03;;;23.99;100.00